sensor_id;sensor_type;location;lat;lon;timestamp;temperature;humidity
8664;DHT22;4369;47.842;13.096;2023-09-30T00:00:07;17.70;99.90
8664;DHT22;4369;47.842;13.096;2023-09-30T00:02:34;17.70;99.90
8664;DHT22;4369;47.842;13.096;2023-09-30T00:05:01;17.70;99.90
8664;DHT22;4369;47.842;13.096;2023-09-30T00:07:30;17.60;99.90
8664;DHT22;4369;47.842;13.096;2023-09-30T00:09:58;17.60;99.90
8664;DHT22;4369;47.842;13.096;2023-09-30T00:12:25;17.60;99.90
8664;DHT22;4369;47.842;13.096;2023-09-30T00:14:52;17.60;99.90
8664;DHT22;4369;47.842;13.096;2023-09-30T00:17:20;17.60;99.90
8664;DHT22;4369;47.842;13.096;2023-09-30T00:19:47;17.60;99.90
8664;DHT22;4369;47.842;13.096;2023-09-30T00:22:14;17.60;99.90
8664;DHT22;4369;47.842;13.096;2023-09-30T00:24:42;17.60;99.90
8664;DHT22;4369;47.842;13.096;2023-09-30T00:27:09;17.60;99.90
8664;DHT22;4369;47.842;13.096;2023-09-30T00:29:36;17.60;99.90
8664;DHT22;4369;47.842;13.096;2023-09-30T00:32:03;17.60;99.90
8664;DHT22;4369;47.842;13.096;2023-09-30T00:34:33;17.70;99.90
8664;DHT22;4369;47.842;13.096;2023-09-30T00:37:00;17.70;99.90
8664;DHT22;4369;47.842;13.096;2023-09-30T00:39:26;17.60;99.90
8664;DHT22;4369;47.842;13.096;2023-09-30T00:41:56;17.60;99.90
8664;DHT22;4369;47.842;13.096;2023-09-30T00:44:25;17.60;99.90
8664;DHT22;4369;47.842;13.096;2023-09-30T00:46:52;17.70;99.90
8664;DHT22;4369;47.842;13.096;2023-09-30T00:49:21;17.60;99.90
8664;DHT22;4369;47.842;13.096;2023-09-30T00:51:49;17.60;99.90
8664;DHT22;4369;47.842;13.096;2023-09-30T00:54:17;17.60;99.90
8664;DHT22;4369;47.842;13.096;2023-09-30T00:56:45;17.60;99.90
8664;DHT22;4369;47.842;13.096;2023-09-30T00:59:15;17.50;99.90
8664;DHT22;4369;47.842;13.096;2023-09-30T01:01:42;17.50;99.90
8664;DHT22;4369;47.842;13.096;2023-09-30T01:04:11;17.50;99.90
8664;DHT22;4369;47.842;13.096;2023-09-30T01:06:38;17.50;99.90
8664;DHT22;4369;47.842;13.096;2023-09-30T01:09:05;17.50;99.90
8664;DHT22;4369;47.842;13.096;2023-09-30T01:11:32;17.50;99.90
8664;DHT22;4369;47.842;13.096;2023-09-30T01:13:59;17.50;99.90
8664;DHT22;4369;47.842;13.096;2023-09-30T01:16:27;17.50;99.90
8664;DHT22;4369;47.842;13.096;2023-09-30T01:18:54;17.50;99.90
8664;DHT22;4369;47.842;13.096;2023-09-30T01:21:21;17.50;99.90
8664;DHT22;4369;47.842;13.096;2023-09-30T01:23:49;17.30;99.90
8664;DHT22;4369;47.842;13.096;2023-09-30T01:26:17;17.30;99.90
8664;DHT22;4369;47.842;13.096;2023-09-30T01:28:44;17.30;99.90
8664;DHT22;4369;47.842;13.096;2023-09-30T01:31:14;17.30;99.90
8664;DHT22;4369;47.842;13.096;2023-09-30T01:33:41;17.30;99.90
8664;DHT22;4369;47.842;13.096;2023-09-30T01:36:08;17.30;99.90
8664;DHT22;4369;47.842;13.096;2023-09-30T01:38:35;17.30;99.90
8664;DHT22;4369;47.842;13.096;2023-09-30T01:41:04;17.30;99.90
8664;DHT22;4369;47.842;13.096;2023-09-30T01:43:31;17.30;99.90
8664;DHT22;4369;47.842;13.096;2023-09-30T01:45:59;17.30;99.90
8664;DHT22;4369;47.842;13.096;2023-09-30T01:48:26;17.20;99.90
8664;DHT22;4369;47.842;13.096;2023-09-30T01:50:53;17.20;99.90
8664;DHT22;4369;47.842;13.096;2023-09-30T01:53:20;17.20;99.90
8664;DHT22;4369;47.842;13.096;2023-09-30T01:55:47;17.30;99.90
8664;DHT22;4369;47.842;13.096;2023-09-30T01:58:15;17.30;99.90
8664;DHT22;4369;47.842;13.096;2023-09-30T02:00:43;17.30;99.90
8664;DHT22;4369;47.842;13.096;2023-09-30T02:03:11;17.20;99.90
8664;DHT22;4369;47.842;13.096;2023-09-30T02:05:38;17.20;99.90
8664;DHT22;4369;47.842;13.096;2023-09-30T02:08:05;17.20;99.90
8664;DHT22;4369;47.842;13.096;2023-09-30T02:10:32;17.20;99.90
8664;DHT22;4369;47.842;13.096;2023-09-30T02:13:00;17.20;99.90
8664;DHT22;4369;47.842;13.096;2023-09-30T02:15:28;17.20;99.90
8664;DHT22;4369;47.842;13.096;2023-09-30T02:17:54;17.20;99.90
8664;DHT22;4369;47.842;13.096;2023-09-30T02:20:21;17.10;99.90
8664;DHT22;4369;47.842;13.096;2023-09-30T02:22:51;17.10;99.90
8664;DHT22;4369;47.842;13.096;2023-09-30T02:25:19;17.10;99.90
8664;DHT22;4369;47.842;13.096;2023-09-30T02:27:46;17.00;99.90
8664;DHT22;4369;47.842;13.096;2023-09-30T02:30:13;17.00;99.90
8664;DHT22;4369;47.842;13.096;2023-09-30T02:32:43;17.00;99.90
8664;DHT22;4369;47.842;13.096;2023-09-30T02:35:11;17.10;99.90
8664;DHT22;4369;47.842;13.096;2023-09-30T02:37:40;17.10;99.90
8664;DHT22;4369;47.842;13.096;2023-09-30T02:40:08;17.10;99.90
8664;DHT22;4369;47.842;13.096;2023-09-30T02:42:36;17.20;99.90
8664;DHT22;4369;47.842;13.096;2023-09-30T02:45:04;17.20;99.90
8664;DHT22;4369;47.842;13.096;2023-09-30T02:47:31;17.20;99.90
8664;DHT22;4369;47.842;13.096;2023-09-30T02:49:59;17.20;99.90
8664;DHT22;4369;47.842;13.096;2023-09-30T02:52:26;17.10;99.90
8664;DHT22;4369;47.842;13.096;2023-09-30T02:54:54;17.10;99.90
8664;DHT22;4369;47.842;13.096;2023-09-30T02:57:23;17.10;99.90
8664;DHT22;4369;47.842;13.096;2023-09-30T02:59:49;17.20;99.90
8664;DHT22;4369;47.842;13.096;2023-09-30T03:02:18;17.20;99.90
8664;DHT22;4369;47.842;13.096;2023-09-30T03:04:46;17.20;99.90
8664;DHT22;4369;47.842;13.096;2023-09-30T03:07:18;17.10;99.90
8664;DHT22;4369;47.842;13.096;2023-09-30T03:09:45;17.10;99.90
8664;DHT22;4369;47.842;13.096;2023-09-30T03:12:12;17.10;99.90
8664;DHT22;4369;47.842;13.096;2023-09-30T03:14:39;17.10;99.90
8664;DHT22;4369;47.842;13.096;2023-09-30T03:17:06;17.10;99.90
8664;DHT22;4369;47.842;13.096;2023-09-30T03:19:37;17.10;99.90
8664;DHT22;4369;47.842;13.096;2023-09-30T03:22:04;17.10;99.90
8664;DHT22;4369;47.842;13.096;2023-09-30T03:24:38;17.00;99.90
8664;DHT22;4369;47.842;13.096;2023-09-30T03:27:05;17.00;99.90
8664;DHT22;4369;47.842;13.096;2023-09-30T03:29:35;17.10;99.90
8664;DHT22;4369;47.842;13.096;2023-09-30T03:32:02;17.10;99.90
8664;DHT22;4369;47.842;13.096;2023-09-30T03:34:29;17.00;99.90
8664;DHT22;4369;47.842;13.096;2023-09-30T03:36:56;17.00;99.90
8664;DHT22;4369;47.842;13.096;2023-09-30T03:39:24;17.00;99.90
8664;DHT22;4369;47.842;13.096;2023-09-30T03:41:54;16.90;99.90
8664;DHT22;4369;47.842;13.096;2023-09-30T03:44:21;16.90;99.90
8664;DHT22;4369;47.842;13.096;2023-09-30T03:46:50;16.90;99.90
8664;DHT22;4369;47.842;13.096;2023-09-30T03:49:18;17.00;99.90
8664;DHT22;4369;47.842;13.096;2023-09-30T03:51:46;17.00;99.90
8664;DHT22;4369;47.842;13.096;2023-09-30T03:54:16;16.90;99.90
8664;DHT22;4369;47.842;13.096;2023-09-30T03:56:43;16.90;99.90
8664;DHT22;4369;47.842;13.096;2023-09-30T03:59:11;17.00;99.90
8664;DHT22;4369;47.842;13.096;2023-09-30T04:01:38;17.00;99.90
8664;DHT22;4369;47.842;13.096;2023-09-30T04:04:06;17.00;99.90
8664;DHT22;4369;47.842;13.096;2023-09-30T04:06:35;17.00;99.90
8664;DHT22;4369;47.842;13.096;2023-09-30T04:09:04;17.00;99.90
8664;DHT22;4369;47.842;13.096;2023-09-30T04:11:35;17.00;99.90
8664;DHT22;4369;47.842;13.096;2023-09-30T04:14:02;17.00;99.90
8664;DHT22;4369;47.842;13.096;2023-09-30T04:16:31;17.00;99.90
8664;DHT22;4369;47.842;13.096;2023-09-30T04:18:58;17.00;99.90
8664;DHT22;4369;47.842;13.096;2023-09-30T04:21:25;17.00;99.90
8664;DHT22;4369;47.842;13.096;2023-09-30T04:23:55;17.00;99.90
8664;DHT22;4369;47.842;13.096;2023-09-30T04:26:23;16.90;99.90
8664;DHT22;4369;47.842;13.096;2023-09-30T04:28:50;16.90;99.90
8664;DHT22;4369;47.842;13.096;2023-09-30T04:31:19;16.90;99.90
8664;DHT22;4369;47.842;13.096;2023-09-30T04:33:48;16.90;99.90
8664;DHT22;4369;47.842;13.096;2023-09-30T04:36:16;16.90;99.90
8664;DHT22;4369;47.842;13.096;2023-09-30T04:38:43;16.90;99.90
8664;DHT22;4369;47.842;13.096;2023-09-30T04:41:10;16.80;99.90
8664;DHT22;4369;47.842;13.096;2023-09-30T04:43:37;16.90;99.90
8664;DHT22;4369;47.842;13.096;2023-09-30T04:46:05;16.90;99.90
8664;DHT22;4369;47.842;13.096;2023-09-30T04:48:32;16.90;99.90
8664;DHT22;4369;47.842;13.096;2023-09-30T04:51:01;16.90;99.90
8664;DHT22;4369;47.842;13.096;2023-09-30T04:53:30;16.90;99.90
8664;DHT22;4369;47.842;13.096;2023-09-30T04:55:59;16.90;99.90
8664;DHT22;4369;47.842;13.096;2023-09-30T04:58:27;16.90;99.90
8664;DHT22;4369;47.842;13.096;2023-09-30T05:00:55;16.90;99.90
8664;DHT22;4369;47.842;13.096;2023-09-30T05:03:22;16.90;99.90
8664;DHT22;4369;47.842;13.096;2023-09-30T05:05:50;16.90;99.90
8664;DHT22;4369;47.842;13.096;2023-09-30T05:08:20;16.80;99.90
8664;DHT22;4369;47.842;13.096;2023-09-30T05:10:47;16.80;99.90
8664;DHT22;4369;47.842;13.096;2023-09-30T05:13:14;16.80;99.90
8664;DHT22;4369;47.842;13.096;2023-09-30T05:15:40;16.80;99.90
8664;DHT22;4369;47.842;13.096;2023-09-30T05:18:08;16.70;99.90
8664;DHT22;4369;47.842;13.096;2023-09-30T05:20:35;16.70;99.90
8664;DHT22;4369;47.842;13.096;2023-09-30T05:23:05;16.80;99.90
8664;DHT22;4369;47.842;13.096;2023-09-30T05:25:34;16.80;99.90
8664;DHT22;4369;47.842;13.096;2023-09-30T05:28:03;16.80;99.90
8664;DHT22;4369;47.842;13.096;2023-09-30T05:30:31;16.80;99.90
8664;DHT22;4369;47.842;13.096;2023-09-30T05:32:58;16.80;99.90
8664;DHT22;4369;47.842;13.096;2023-09-30T05:35:25;16.80;99.90
8664;DHT22;4369;47.842;13.096;2023-09-30T05:37:53;16.80;99.90
8664;DHT22;4369;47.842;13.096;2023-09-30T05:40:21;16.80;99.90
8664;DHT22;4369;47.842;13.096;2023-09-30T05:42:52;16.90;99.90
8664;DHT22;4369;47.842;13.096;2023-09-30T05:45:19;16.80;99.90
8664;DHT22;4369;47.842;13.096;2023-09-30T05:47:47;16.80;99.90
8664;DHT22;4369;47.842;13.096;2023-09-30T05:50:13;16.80;99.90
8664;DHT22;4369;47.842;13.096;2023-09-30T05:52:42;16.80;99.90
8664;DHT22;4369;47.842;13.096;2023-09-30T05:55:10;16.80;99.90
8664;DHT22;4369;47.842;13.096;2023-09-30T05:57:37;16.80;99.90
8664;DHT22;4369;47.842;13.096;2023-09-30T06:00:07;16.80;99.90
8664;DHT22;4369;47.842;13.096;2023-09-30T06:02:53;16.80;99.90
8664;DHT22;4369;47.842;13.096;2023-09-30T06:05:21;16.90;99.90
8664;DHT22;4369;47.842;13.096;2023-09-30T06:07:49;16.90;99.90
8664;DHT22;4369;47.842;13.096;2023-09-30T06:10:16;16.80;99.90
8664;DHT22;4369;47.842;13.096;2023-09-30T06:12:44;16.80;99.90
8664;DHT22;4369;47.842;13.096;2023-09-30T06:15:13;16.90;99.90
8664;DHT22;4369;47.842;13.096;2023-09-30T06:17:41;16.90;99.90
8664;DHT22;4369;47.842;13.096;2023-09-30T06:20:09;16.90;99.90
8664;DHT22;4369;47.842;13.096;2023-09-30T06:22:42;16.80;99.90
8664;DHT22;4369;47.842;13.096;2023-09-30T06:25:10;16.90;99.90
8664;DHT22;4369;47.842;13.096;2023-09-30T06:27:38;16.90;99.90
8664;DHT22;4369;47.842;13.096;2023-09-30T06:30:06;16.90;99.90
8664;DHT22;4369;47.842;13.096;2023-09-30T06:32:35;17.00;99.90
8664;DHT22;4369;47.842;13.096;2023-09-30T06:35:03;17.10;99.90
8664;DHT22;4369;47.842;13.096;2023-09-30T06:37:31;17.10;99.90
8664;DHT22;4369;47.842;13.096;2023-09-30T06:39:58;17.10;99.90
8664;DHT22;4369;47.842;13.096;2023-09-30T06:42:29;17.20;99.90
8664;DHT22;4369;47.842;13.096;2023-09-30T06:44:56;17.20;99.90
8664;DHT22;4369;47.842;13.096;2023-09-30T06:47:23;17.30;99.90
8664;DHT22;4369;47.842;13.096;2023-09-30T06:49:51;17.40;99.90
8664;DHT22;4369;47.842;13.096;2023-09-30T06:52:18;17.30;99.90
8664;DHT22;4369;47.842;13.096;2023-09-30T06:54:45;17.50;99.90
8664;DHT22;4369;47.842;13.096;2023-09-30T06:57:12;17.60;99.90
8664;DHT22;4369;47.842;13.096;2023-09-30T06:59:39;17.70;99.90
8664;DHT22;4369;47.842;13.096;2023-09-30T07:02:06;17.80;99.90
8664;DHT22;4369;47.842;13.096;2023-09-30T07:04:33;17.80;99.90
8664;DHT22;4369;47.842;13.096;2023-09-30T07:07:01;17.90;99.90
8664;DHT22;4369;47.842;13.096;2023-09-30T07:09:28;18.00;99.90
8664;DHT22;4369;47.842;13.096;2023-09-30T07:11:55;18.20;99.90
8664;DHT22;4369;47.842;13.096;2023-09-30T07:14:22;18.20;99.90
8664;DHT22;4369;47.842;13.096;2023-09-30T07:16:49;18.20;99.90
8664;DHT22;4369;47.842;13.096;2023-09-30T07:19:16;18.10;99.90
8664;DHT22;4369;47.842;13.096;2023-09-30T07:21:43;18.20;99.90
8664;DHT22;4369;47.842;13.096;2023-09-30T07:24:13;18.10;99.90
8664;DHT22;4369;47.842;13.096;2023-09-30T07:26:40;18.10;99.90
8664;DHT22;4369;47.842;13.096;2023-09-30T07:29:08;18.10;99.90
8664;DHT22;4369;47.842;13.096;2023-09-30T07:31:36;18.10;99.90
8664;DHT22;4369;47.842;13.096;2023-09-30T07:34:03;18.20;99.90
8664;DHT22;4369;47.842;13.096;2023-09-30T07:36:29;18.30;99.90
8664;DHT22;4369;47.842;13.096;2023-09-30T07:38:57;18.40;99.90
8664;DHT22;4369;47.842;13.096;2023-09-30T07:41:25;18.50;99.90
8664;DHT22;4369;47.842;13.096;2023-09-30T07:43:52;18.50;99.90
8664;DHT22;4369;47.842;13.096;2023-09-30T07:46:19;18.70;99.90
8664;DHT22;4369;47.842;13.096;2023-09-30T07:48:46;18.70;99.90
8664;DHT22;4369;47.842;13.096;2023-09-30T07:51:13;18.80;99.90
8664;DHT22;4369;47.842;13.096;2023-09-30T07:53:40;18.80;99.90
8664;DHT22;4369;47.842;13.096;2023-09-30T07:56:07;18.80;99.90
8664;DHT22;4369;47.842;13.096;2023-09-30T07:58:35;18.70;99.90
8664;DHT22;4369;47.842;13.096;2023-09-30T08:01:02;18.50;99.90
8664;DHT22;4369;47.842;13.096;2023-09-30T08:03:30;18.40;99.90
8664;DHT22;4369;47.842;13.096;2023-09-30T08:05:57;18.50;99.90
8664;DHT22;4369;47.842;13.096;2023-09-30T08:08:24;18.70;99.90
8664;DHT22;4369;47.842;13.096;2023-09-30T08:10:51;18.70;99.90
8664;DHT22;4369;47.842;13.096;2023-09-30T08:13:21;18.70;99.90
8664;DHT22;4369;47.842;13.096;2023-09-30T08:15:50;18.80;99.90
8664;DHT22;4369;47.842;13.096;2023-09-30T08:18:17;18.80;99.90
8664;DHT22;4369;47.842;13.096;2023-09-30T08:20:44;18.70;99.90
8664;DHT22;4369;47.842;13.096;2023-09-30T08:23:11;18.70;99.90
8664;DHT22;4369;47.842;13.096;2023-09-30T08:25:38;18.60;99.90
8664;DHT22;4369;47.842;13.096;2023-09-30T08:28:05;18.60;99.90
8664;DHT22;4369;47.842;13.096;2023-09-30T08:30:33;18.80;99.90
8664;DHT22;4369;47.842;13.096;2023-09-30T08:33:02;18.90;99.90
8664;DHT22;4369;47.842;13.096;2023-09-30T08:35:29;18.90;99.90
8664;DHT22;4369;47.842;13.096;2023-09-30T08:37:57;18.90;99.90
8664;DHT22;4369;47.842;13.096;2023-09-30T08:40:25;19.00;99.90
8664;DHT22;4369;47.842;13.096;2023-09-30T08:42:52;19.10;99.90
8664;DHT22;4369;47.842;13.096;2023-09-30T08:45:19;19.10;99.90
8664;DHT22;4369;47.842;13.096;2023-09-30T08:47:46;19.20;99.90
8664;DHT22;4369;47.842;13.096;2023-09-30T08:50:16;19.30;99.90
8664;DHT22;4369;47.842;13.096;2023-09-30T08:52:44;19.50;99.90
8664;DHT22;4369;47.842;13.096;2023-09-30T08:55:12;19.50;99.90
8664;DHT22;4369;47.842;13.096;2023-09-30T08:57:41;19.50;99.90
8664;DHT22;4369;47.842;13.096;2023-09-30T09:00:09;19.50;99.90
8664;DHT22;4369;47.842;13.096;2023-09-30T09:02:38;19.50;99.90
8664;DHT22;4369;47.842;13.096;2023-09-30T09:05:06;19.60;99.90
8664;DHT22;4369;47.842;13.096;2023-09-30T09:07:34;19.60;99.90
8664;DHT22;4369;47.842;13.096;2023-09-30T09:10:05;19.60;99.90
8664;DHT22;4369;47.842;13.096;2023-09-30T09:12:34;19.70;99.90
8664;DHT22;4369;47.842;13.096;2023-09-30T09:15:02;19.70;99.90
8664;DHT22;4369;47.842;13.096;2023-09-30T09:17:42;19.80;99.90
8664;DHT22;4369;47.842;13.096;2023-09-30T09:20:11;19.70;99.90
8664;DHT22;4369;47.842;13.096;2023-09-30T09:22:48;19.80;99.90
8664;DHT22;4369;47.842;13.096;2023-09-30T09:25:16;20.00;99.90
8664;DHT22;4369;47.842;13.096;2023-09-30T09:27:43;20.00;98.70
8664;DHT22;4369;47.842;13.096;2023-09-30T09:30:18;20.30;99.90
8664;DHT22;4369;47.842;13.096;2023-09-30T09:33:01;20.40;85.90
8664;DHT22;4369;47.842;13.096;2023-09-30T09:35:31;20.40;69.30
8664;DHT22;4369;47.842;13.096;2023-09-30T09:38:03;20.50;91.30
8664;DHT22;4369;47.842;13.096;2023-09-30T09:40:31;20.70;95.10
8664;DHT22;4369;47.842;13.096;2023-09-30T09:42:59;20.90;91.40
8664;DHT22;4369;47.842;13.096;2023-09-30T09:45:32;20.90;44.90
8664;DHT22;4369;47.842;13.096;2023-09-30T09:48:00;20.90;38.90
8664;DHT22;4369;47.842;13.096;2023-09-30T09:50:30;21.10;31.60
8664;DHT22;4369;47.842;13.096;2023-09-30T09:52:58;21.30;39.20
8664;DHT22;4369;47.842;13.096;2023-09-30T09:55:27;21.30;38.50
8664;DHT22;4369;47.842;13.096;2023-09-30T09:57:54;21.30;94.20
8664;DHT22;4369;47.842;13.096;2023-09-30T10:00:23;21.20;33.10
8664;DHT22;4369;47.842;13.096;2023-09-30T10:02:51;21.00;32.20
8664;DHT22;4369;47.842;13.096;2023-09-30T10:05:20;20.90;35.90
8664;DHT22;4369;47.842;13.096;2023-09-30T10:07:51;20.90;1.00
8664;DHT22;4369;47.842;13.096;2023-09-30T10:10:20;20.60;1.00
8664;DHT22;4369;47.842;13.096;2023-09-30T10:12:50;20.60;1.00
8664;DHT22;4369;47.842;13.096;2023-09-30T10:15:38;20.60;1.00
8664;DHT22;4369;47.842;13.096;2023-09-30T10:18:09;20.40;1.00
8664;DHT22;4369;47.842;13.096;2023-09-30T10:20:37;20.40;1.00
8664;DHT22;4369;47.842;13.096;2023-09-30T10:23:23;20.50;1.00
8664;DHT22;4369;47.842;13.096;2023-09-30T10:25:53;20.70;1.00
8664;DHT22;4369;47.842;13.096;2023-09-30T10:28:34;20.80;1.00
8664;DHT22;4369;47.842;13.096;2023-09-30T10:31:09;21.10;1.00
8664;DHT22;4369;47.842;13.096;2023-09-30T10:33:36;21.40;1.00
8664;DHT22;4369;47.842;13.096;2023-09-30T10:36:03;21.70;1.00
8664;DHT22;4369;47.842;13.096;2023-09-30T10:38:40;21.50;1.00
8664;DHT22;4369;47.842;13.096;2023-09-30T10:41:08;21.30;99.90
8664;DHT22;4369;47.842;13.096;2023-09-30T10:43:37;21.20;99.90
8664;DHT22;4369;47.842;13.096;2023-09-30T10:46:30;21.30;99.90
8664;DHT22;4369;47.842;13.096;2023-09-30T10:49:15;21.50;99.90
8664;DHT22;4369;47.842;13.096;2023-09-30T10:51:44;22.00;25.60
8664;DHT22;4369;47.842;13.096;2023-09-30T10:54:13;22.20;1.00
8664;DHT22;4369;47.842;13.096;2023-09-30T10:56:40;22.10;1.00
8664;DHT22;4369;47.842;13.096;2023-09-30T10:59:08;22.00;1.00
8664;DHT22;4369;47.842;13.096;2023-09-30T11:01:35;22.00;1.00
8664;DHT22;4369;47.842;13.096;2023-09-30T11:04:03;22.30;1.00
8664;DHT22;4369;47.842;13.096;2023-09-30T11:06:31;22.70;1.00
8664;DHT22;4369;47.842;13.096;2023-09-30T11:09:00;22.70;1.00
8664;DHT22;4369;47.842;13.096;2023-09-30T11:11:35;22.20;1.00
8664;DHT22;4369;47.842;13.096;2023-09-30T11:14:03;22.00;1.00
8664;DHT22;4369;47.842;13.096;2023-09-30T11:16:42;22.00;1.00
8664;DHT22;4369;47.842;13.096;2023-09-30T11:19:09;22.10;1.00
8664;DHT22;4369;47.842;13.096;2023-09-30T11:21:37;21.90;1.00
8664;DHT22;4369;47.842;13.096;2023-09-30T11:24:06;21.90;1.00
8664;DHT22;4369;47.842;13.096;2023-09-30T11:26:33;22.10;1.00
8664;DHT22;4369;47.842;13.096;2023-09-30T11:29:08;22.50;1.00
8664;DHT22;4369;47.842;13.096;2023-09-30T11:31:37;22.70;1.00
8664;DHT22;4369;47.842;13.096;2023-09-30T11:34:06;22.70;1.00
8664;DHT22;4369;47.842;13.096;2023-09-30T11:36:34;23.00;1.00
8664;DHT22;4369;47.842;13.096;2023-09-30T11:39:01;23.10;1.00
8664;DHT22;4369;47.842;13.096;2023-09-30T11:41:36;23.40;1.00
8664;DHT22;4369;47.842;13.096;2023-09-30T11:44:08;23.30;1.00
8664;DHT22;4369;47.842;13.096;2023-09-30T11:46:50;23.10;1.00
8664;DHT22;4369;47.842;13.096;2023-09-30T11:49:27;23.60;1.00
8664;DHT22;4369;47.842;13.096;2023-09-30T11:51:54;24.00;1.00
8664;DHT22;4369;47.842;13.096;2023-09-30T11:54:22;25.30;1.00
8664;DHT22;4369;47.842;13.096;2023-09-30T11:56:49;26.40;1.00
8664;DHT22;4369;47.842;13.096;2023-09-30T11:59:17;27.60;1.00
8664;DHT22;4369;47.842;13.096;2023-09-30T12:01:48;28.00;1.00
8664;DHT22;4369;47.842;13.096;2023-09-30T12:04:15;27.80;1.00
8664;DHT22;4369;47.842;13.096;2023-09-30T12:06:46;28.10;1.00
8664;DHT22;4369;47.842;13.096;2023-09-30T12:09:13;27.10;1.00
8664;DHT22;4369;47.842;13.096;2023-09-30T12:11:41;26.50;1.00
8664;DHT22;4369;47.842;13.096;2023-09-30T12:14:10;25.60;1.00
8664;DHT22;4369;47.842;13.096;2023-09-30T12:16:38;25.00;1.00
8664;DHT22;4369;47.842;13.096;2023-09-30T12:19:05;24.20;1.00
8664;DHT22;4369;47.842;13.096;2023-09-30T12:21:32;23.80;1.00
8664;DHT22;4369;47.842;13.096;2023-09-30T12:24:01;23.40;1.00
8664;DHT22;4369;47.842;13.096;2023-09-30T12:26:29;23.20;1.00
8664;DHT22;4369;47.842;13.096;2023-09-30T12:28:57;23.10;1.00
8664;DHT22;4369;47.842;13.096;2023-09-30T12:31:23;23.10;1.00
8664;DHT22;4369;47.842;13.096;2023-09-30T12:33:51;23.10;1.00
8664;DHT22;4369;47.842;13.096;2023-09-30T12:36:20;23.00;1.00
8664;DHT22;4369;47.842;13.096;2023-09-30T12:38:48;22.90;1.00
8664;DHT22;4369;47.842;13.096;2023-09-30T12:41:16;23.10;1.00
8664;DHT22;4369;47.842;13.096;2023-09-30T12:43:44;23.30;1.00
8664;DHT22;4369;47.842;13.096;2023-09-30T12:46:11;23.50;1.00
8664;DHT22;4369;47.842;13.096;2023-09-30T12:48:39;24.20;1.00
8664;DHT22;4369;47.842;13.096;2023-09-30T12:51:06;28.80;1.00
8664;DHT22;4369;47.842;13.096;2023-09-30T12:53:34;32.90;1.00
8664;DHT22;4369;47.842;13.096;2023-09-30T12:56:01;35.10;1.00
8664;DHT22;4369;47.842;13.096;2023-09-30T12:58:29;34.80;1.00
8664;DHT22;4369;47.842;13.096;2023-09-30T13:00:56;33.60;1.00
8664;DHT22;4369;47.842;13.096;2023-09-30T13:03:23;33.10;1.00
8664;DHT22;4369;47.842;13.096;2023-09-30T13:05:50;32.70;1.00
8664;DHT22;4369;47.842;13.096;2023-09-30T13:08:17;31.90;1.00
8664;DHT22;4369;47.842;13.096;2023-09-30T13:10:44;30.60;1.00
8664;DHT22;4369;47.842;13.096;2023-09-30T13:13:13;29.50;1.00
8664;DHT22;4369;47.842;13.096;2023-09-30T13:15:42;29.10;1.00
8664;DHT22;4369;47.842;13.096;2023-09-30T13:18:09;28.80;1.00
8664;DHT22;4369;47.842;13.096;2023-09-30T13:20:36;28.20;1.00
8664;DHT22;4369;47.842;13.096;2023-09-30T13:23:03;27.50;1.00
8664;DHT22;4369;47.842;13.096;2023-09-30T13:25:30;26.90;1.00
8664;DHT22;4369;47.842;13.096;2023-09-30T13:27:57;26.70;1.00
8664;DHT22;4369;47.842;13.096;2023-09-30T13:30:24;26.30;1.00
8664;DHT22;4369;47.842;13.096;2023-09-30T13:32:52;25.90;1.00
8664;DHT22;4369;47.842;13.096;2023-09-30T13:35:19;25.70;1.00
8664;DHT22;4369;47.842;13.096;2023-09-30T13:37:46;25.10;1.00
8664;DHT22;4369;47.842;13.096;2023-09-30T13:40:13;24.70;1.00
8664;DHT22;4369;47.842;13.096;2023-09-30T13:42:40;24.50;1.00
8664;DHT22;4369;47.842;13.096;2023-09-30T13:45:08;23.90;1.00
8664;DHT22;4369;47.842;13.096;2023-09-30T13:47:36;23.30;1.00
8664;DHT22;4369;47.842;13.096;2023-09-30T13:50:05;23.20;1.00
8664;DHT22;4369;47.842;13.096;2023-09-30T13:52:33;23.30;1.00
8664;DHT22;4369;47.842;13.096;2023-09-30T13:55:00;23.10;1.00
8664;DHT22;4369;47.842;13.096;2023-09-30T13:57:28;23.10;1.00
8664;DHT22;4369;47.842;13.096;2023-09-30T13:59:55;23.10;1.00
8664;DHT22;4369;47.842;13.096;2023-09-30T14:02:22;23.10;1.00
8664;DHT22;4369;47.842;13.096;2023-09-30T14:04:49;23.10;1.00
8664;DHT22;4369;47.842;13.096;2023-09-30T14:07:17;22.80;1.00
8664;DHT22;4369;47.842;13.096;2023-09-30T14:09:44;22.60;1.00
8664;DHT22;4369;47.842;13.096;2023-09-30T14:12:11;22.40;1.00
8664;DHT22;4369;47.842;13.096;2023-09-30T14:14:39;22.40;1.00
8664;DHT22;4369;47.842;13.096;2023-09-30T14:17:06;22.30;1.00
8664;DHT22;4369;47.842;13.096;2023-09-30T14:19:37;22.40;1.00
8664;DHT22;4369;47.842;13.096;2023-09-30T14:22:04;22.60;1.00
8664;DHT22;4369;47.842;13.096;2023-09-30T14:24:33;22.60;1.00
8664;DHT22;4369;47.842;13.096;2023-09-30T14:27:00;22.50;1.00
8664;DHT22;4369;47.842;13.096;2023-09-30T14:29:27;22.60;1.00
8664;DHT22;4369;47.842;13.096;2023-09-30T14:31:54;22.60;1.00
8664;DHT22;4369;47.842;13.096;2023-09-30T14:34:22;22.70;1.00
8664;DHT22;4369;47.842;13.096;2023-09-30T14:36:49;22.70;1.00
8664;DHT22;4369;47.842;13.096;2023-09-30T14:39:16;22.60;1.00
8664;DHT22;4369;47.842;13.096;2023-09-30T14:41:44;22.60;1.00
8664;DHT22;4369;47.842;13.096;2023-09-30T14:44:12;22.80;1.00
8664;DHT22;4369;47.842;13.096;2023-09-30T14:46:39;22.90;1.00
8664;DHT22;4369;47.842;13.096;2023-09-30T14:49:06;22.90;1.00
8664;DHT22;4369;47.842;13.096;2023-09-30T14:51:33;22.90;1.00
8664;DHT22;4369;47.842;13.096;2023-09-30T14:54:00;23.00;1.00
8664;DHT22;4369;47.842;13.096;2023-09-30T14:56:27;23.10;1.00
8664;DHT22;4369;47.842;13.096;2023-09-30T14:58:55;22.80;1.00
8664;DHT22;4369;47.842;13.096;2023-09-30T15:01:22;22.60;1.00
8664;DHT22;4369;47.842;13.096;2023-09-30T15:03:49;22.30;1.00
8664;DHT22;4369;47.842;13.096;2023-09-30T15:06:16;22.00;1.00
8664;DHT22;4369;47.842;13.096;2023-09-30T15:08:43;21.80;1.00
8664;DHT22;4369;47.842;13.096;2023-09-30T15:11:13;21.50;1.00
8664;DHT22;4369;47.842;13.096;2023-09-30T15:13:41;21.30;1.00
8664;DHT22;4369;47.842;13.096;2023-09-30T15:16:16;21.10;1.00
8664;DHT22;4369;47.842;13.096;2023-09-30T15:18:44;21.00;1.00
8664;DHT22;4369;47.842;13.096;2023-09-30T15:21:12;21.10;1.00
8664;DHT22;4369;47.842;13.096;2023-09-30T15:23:39;21.10;12.90
8664;DHT22;4369;47.842;13.096;2023-09-30T15:26:06;21.00;99.90
8664;DHT22;4369;47.842;13.096;2023-09-30T15:28:33;21.00;99.90
8664;DHT22;4369;47.842;13.096;2023-09-30T15:31:00;21.00;99.90
8664;DHT22;4369;47.842;13.096;2023-09-30T15:33:29;21.00;99.90
8664;DHT22;4369;47.842;13.096;2023-09-30T15:35:56;21.00;99.90
8664;DHT22;4369;47.842;13.096;2023-09-30T15:38:23;20.90;1.00
8664;DHT22;4369;47.842;13.096;2023-09-30T15:40:51;20.80;1.00
8664;DHT22;4369;47.842;13.096;2023-09-30T15:43:19;20.80;1.00
8664;DHT22;4369;47.842;13.096;2023-09-30T15:45:46;20.60;99.90
8664;DHT22;4369;47.842;13.096;2023-09-30T15:48:13;20.60;1.00
8664;DHT22;4369;47.842;13.096;2023-09-30T15:50:42;20.50;89.50
8664;DHT22;4369;47.842;13.096;2023-09-30T15:53:09;20.40;1.00
8664;DHT22;4369;47.842;13.096;2023-09-30T15:55:36;20.30;1.00
8664;DHT22;4369;47.842;13.096;2023-09-30T15:58:03;20.10;1.00